sensor_id;sensor_type;location;lat;lon;timestamp;P1;durP1;ratioP1;P2;durP2;ratioP2
42030;SDS011;27709;52.036;5.906;2023-02-18T00:02:03;53.63;;;25.38;;
42030;SDS011;27709;52.036;5.906;2023-02-18T00:04:30;51.30;;;24.63;;
42030;SDS011;27709;52.036;5.906;2023-02-18T00:06:56;48.67;;;24.60;;
42030;SDS011;27709;52.036;5.906;2023-02-18T00:09:23;49.78;;;24.45;;
42030;SDS011;27709;52.036;5.906;2023-02-18T00:11:48;43.95;;;23.60;;
42030;SDS011;27709;52.036;5.906;2023-02-18T00:14:14;47.00;;;24.48;;
42030;SDS011;27709;52.036;5.906;2023-02-18T00:16:41;48.00;;;23.85;;
42030;SDS011;27709;52.036;5.906;2023-02-18T00:19:10;48.97;;;24.85;;
42030;SDS011;27709;52.036;5.906;2023-02-18T00:21:39;48.75;;;25.13;;
42030;SDS011;27709;52.036;5.906;2023-02-18T00:24:04;57.80;;;26.42;;
42030;SDS011;27709;52.036;5.906;2023-02-18T00:26:30;71.50;;;31.45;;
42030;SDS011;27709;52.036;5.906;2023-02-18T00:28:56;55.25;;;26.08;;
42030;SDS011;27709;52.036;5.906;2023-02-18T00:31:31;60.83;;;28.35;;
42030;SDS011;27709;52.036;5.906;2023-02-18T00:33:59;65.63;;;28.73;;
42030;SDS011;27709;52.036;5.906;2023-02-18T00:36:26;59.95;;;27.85;;
42030;SDS011;27709;52.036;5.906;2023-02-18T00:38:52;62.17;;;27.67;;
42030;SDS011;27709;52.036;5.906;2023-02-18T00:41:23;71.70;;;31.83;;
42030;SDS011;27709;52.036;5.906;2023-02-18T00:43:50;65.43;;;27.10;;
42030;SDS011;27709;52.036;5.906;2023-02-18T00:46:16;69.68;;;28.85;;
42030;SDS011;27709;52.036;5.906;2023-02-18T00:48:42;56.42;;;26.42;;
42030;SDS011;27709;52.036;5.906;2023-02-18T00:51:08;60.22;;;25.85;;
42030;SDS011;27709;52.036;5.906;2023-02-18T00:53:34;68.57;;;27.00;;
42030;SDS011;27709;52.036;5.906;2023-02-18T00:56:00;58.88;;;26.42;;
42030;SDS011;27709;52.036;5.906;2023-02-18T00:58:26;67.90;;;28.30;;
42030;SDS011;27709;52.036;5.906;2023-02-18T01:00:51;59.35;;;26.02;;
42030;SDS011;27709;52.036;5.906;2023-02-18T01:03:18;63.28;;;28.15;;
42030;SDS011;27709;52.036;5.906;2023-02-18T01:05:43;74.13;;;29.05;;
42030;SDS011;27709;52.036;5.906;2023-02-18T01:08:10;63.40;;;25.38;;
42030;SDS011;27709;52.036;5.906;2023-02-18T01:10:38;61.08;;;26.00;;
42030;SDS011;27709;52.036;5.906;2023-02-18T01:13:06;48.63;;;20.77;;
42030;SDS011;27709;52.036;5.906;2023-02-18T01:15:32;58.95;;;24.60;;
42030;SDS011;27709;52.036;5.906;2023-02-18T01:17:57;53.92;;;24.65;;
42030;SDS011;27709;52.036;5.906;2023-02-18T01:20:23;59.65;;;24.73;;
42030;SDS011;27709;52.036;5.906;2023-02-18T01:22:49;61.30;;;24.50;;
42030;SDS011;27709;52.036;5.906;2023-02-18T01:25:15;55.40;;;23.63;;
42030;SDS011;27709;52.036;5.906;2023-02-18T01:27:41;68.07;;;26.88;;
42030;SDS011;27709;52.036;5.906;2023-02-18T01:30:07;51.05;;;21.60;;
42030;SDS011;27709;52.036;5.906;2023-02-18T01:32:35;51.88;;;21.05;;
42030;SDS011;27709;52.036;5.906;2023-02-18T01:35:03;54.72;;;21.10;;
42030;SDS011;27709;52.036;5.906;2023-02-18T01:37:30;47.78;;;19.95;;
42030;SDS011;27709;52.036;5.906;2023-02-18T01:39:55;51.88;;;20.20;;
42030;SDS011;27709;52.036;5.906;2023-02-18T01:42:22;44.00;;;18.95;;
42030;SDS011;27709;52.036;5.906;2023-02-18T01:44:50;43.38;;;19.92;;
42030;SDS011;27709;52.036;5.906;2023-02-18T01:47:16;42.65;;;18.63;;
42030;SDS011;27709;52.036;5.906;2023-02-18T01:49:43;46.30;;;19.60;;
42030;SDS011;27709;52.036;5.906;2023-02-18T01:52:23;42.08;;;18.30;;
42030;SDS011;27709;52.036;5.906;2023-02-18T01:54:52;40.05;;;17.60;;
42030;SDS011;27709;52.036;5.906;2023-02-18T01:57:21;38.45;;;16.60;;
42030;SDS011;27709;52.036;5.906;2023-02-18T01:59:56;41.88;;;19.35;;
42030;SDS011;27709;52.036;5.906;2023-02-18T02:02:28;45.80;;;19.83;;
42030;SDS011;27709;52.036;5.906;2023-02-18T02:04:57;42.47;;;18.40;;
42030;SDS011;27709;52.036;5.906;2023-02-18T02:07:23;49.75;;;21.85;;
42030;SDS011;27709;52.036;5.906;2023-02-18T02:09:51;38.70;;;18.02;;
42030;SDS011;27709;52.036;5.906;2023-02-18T02:15:22;43.80;;;19.45;;
42030;SDS011;27709;52.036;5.906;2023-02-18T02:18:15;37.38;;;16.70;;
42030;SDS011;27709;52.036;5.906;2023-02-18T02:21:12;41.38;;;18.17;;
42030;SDS011;27709;52.036;5.906;2023-02-18T02:30:18;56.13;;;22.45;;
42030;SDS011;27709;52.036;5.906;2023-02-18T02:33:12;46.33;;;19.73;;
42030;SDS011;27709;52.036;5.906;2023-02-18T02:35:53;45.60;;;21.02;;
42030;SDS011;27709;52.036;5.906;2023-02-18T02:38:30;48.38;;;22.27;;
42030;SDS011;27709;52.036;5.906;2023-02-18T02:41:23;43.33;;;20.20;;
42030;SDS011;27709;52.036;5.906;2023-02-18T02:44:21;52.35;;;22.60;;
42030;SDS011;27709;52.036;5.906;2023-02-18T02:46:59;54.53;;;23.25;;
42030;SDS011;27709;52.036;5.906;2023-02-18T02:49:43;44.70;;;21.02;;
42030;SDS011;27709;52.036;5.906;2023-02-18T02:52:23;51.97;;;22.90;;
42030;SDS011;27709;52.036;5.906;2023-02-18T02:54:54;51.25;;;22.75;;
42030;SDS011;27709;52.036;5.906;2023-02-18T02:59:50;50.00;;;23.67;;
42030;SDS011;27709;52.036;5.906;2023-02-18T03:16:43;67.22;;;27.05;;
42030;SDS011;27709;52.036;5.906;2023-02-18T03:21:55;61.90;;;25.85;;
42030;SDS011;27709;52.036;5.906;2023-02-18T03:24:29;53.67;;;23.73;;
42030;SDS011;27709;52.036;5.906;2023-02-18T03:27:10;62.50;;;26.17;;
42030;SDS011;27709;52.036;5.906;2023-02-18T03:30:00;60.17;;;25.65;;
42030;SDS011;27709;52.036;5.906;2023-02-18T03:32:31;59.75;;;25.33;;
42030;SDS011;27709;52.036;5.906;2023-02-18T03:35:00;51.75;;;24.15;;
42030;SDS011;27709;52.036;5.906;2023-02-18T03:37:31;51.75;;;22.48;;
42030;SDS011;27709;52.036;5.906;2023-02-18T03:40:01;56.13;;;23.77;;
42030;SDS011;27709;52.036;5.906;2023-02-18T03:42:27;49.67;;;22.80;;
42030;SDS011;27709;52.036;5.906;2023-02-18T03:44:53;55.50;;;23.73;;
42030;SDS011;27709;52.036;5.906;2023-02-18T03:47:19;53.70;;;21.55;;
42030;SDS011;27709;52.036;5.906;2023-02-18T03:49:45;51.25;;;21.77;;
42030;SDS011;27709;52.036;5.906;2023-02-18T03:52:10;39.05;;;18.70;;
42030;SDS011;27709;52.036;5.906;2023-02-18T03:54:36;46.15;;;20.88;;
42030;SDS011;27709;52.036;5.906;2023-02-18T03:57:02;45.53;;;18.80;;
42030;SDS011;27709;52.036;5.906;2023-02-18T03:59:27;38.92;;;18.00;;
42030;SDS011;27709;52.036;5.906;2023-02-18T04:01:53;35.90;;;16.92;;
42030;SDS011;27709;52.036;5.906;2023-02-18T04:04:18;33.25;;;15.05;;
42030;SDS011;27709;52.036;5.906;2023-02-18T04:06:44;31.27;;;15.18;;
42030;SDS011;27709;52.036;5.906;2023-02-18T04:09:09;36.78;;;15.13;;
42030;SDS011;27709;52.036;5.906;2023-02-18T04:11:36;31.70;;;14.13;;
42030;SDS011;27709;52.036;5.906;2023-02-18T04:14:04;28.30;;;13.70;;
42030;SDS011;27709;52.036;5.906;2023-02-18T04:16:30;30.50;;;13.45;;
42030;SDS011;27709;52.036;5.906;2023-02-18T04:18:56;27.77;;;13.40;;
42030;SDS011;27709;52.036;5.906;2023-02-18T04:21:21;19.63;;;10.57;;
42030;SDS011;27709;52.036;5.906;2023-02-18T04:23:47;27.10;;;13.05;;
42030;SDS011;27709;52.036;5.906;2023-02-18T04:26:12;23.73;;;11.23;;
42030;SDS011;27709;52.036;5.906;2023-02-18T04:28:38;24.85;;;12.02;;
42030;SDS011;27709;52.036;5.906;2023-02-18T04:31:04;24.65;;;12.18;;
42030;SDS011;27709;52.036;5.906;2023-02-18T04:33:29;22.00;;;10.95;;
42030;SDS011;27709;52.036;5.906;2023-02-18T04:35:55;23.17;;;10.95;;
42030;SDS011;27709;52.036;5.906;2023-02-18T04:38:20;24.30;;;11.82;;
42030;SDS011;27709;52.036;5.906;2023-02-18T04:40:46;21.75;;;10.73;;
42030;SDS011;27709;52.036;5.906;2023-02-18T04:43:11;20.67;;;9.68;;
42030;SDS011;27709;52.036;5.906;2023-02-18T04:45:38;23.23;;;10.50;;
42030;SDS011;27709;52.036;5.906;2023-02-18T04:48:04;21.85;;;10.93;;
42030;SDS011;27709;52.036;5.906;2023-02-18T04:50:30;20.70;;;9.40;;
42030;SDS011;27709;52.036;5.906;2023-02-18T04:52:55;20.10;;;10.20;;
42030;SDS011;27709;52.036;5.906;2023-02-18T04:55:21;18.75;;;9.45;;
42030;SDS011;27709;52.036;5.906;2023-02-18T04:57:48;19.05;;;9.50;;
42030;SDS011;27709;52.036;5.906;2023-02-18T05:00:17;19.38;;;9.23;;
42030;SDS011;27709;52.036;5.906;2023-02-18T05:02:43;17.40;;;8.75;;
42030;SDS011;27709;52.036;5.906;2023-02-18T05:05:10;17.73;;;8.23;;
42030;SDS011;27709;52.036;5.906;2023-02-18T05:07:36;14.95;;;7.85;;
42030;SDS011;27709;52.036;5.906;2023-02-18T05:10:02;14.93;;;8.30;;
42030;SDS011;27709;52.036;5.906;2023-02-18T05:12:28;14.90;;;7.90;;
42030;SDS011;27709;52.036;5.906;2023-02-18T05:14:55;15.05;;;7.85;;
42030;SDS011;27709;52.036;5.906;2023-02-18T05:17:20;14.85;;;7.82;;
42030;SDS011;27709;52.036;5.906;2023-02-18T05:19:46;15.02;;;7.78;;
42030;SDS011;27709;52.036;5.906;2023-02-18T05:22:11;12.10;;;6.28;;
42030;SDS011;27709;52.036;5.906;2023-02-18T05:24:37;12.07;;;6.82;;
42030;SDS011;27709;52.036;5.906;2023-02-18T05:27:02;12.65;;;7.00;;
42030;SDS011;27709;52.036;5.906;2023-02-18T05:29:28;12.40;;;6.53;;
42030;SDS011;27709;52.036;5.906;2023-02-18T05:31:55;11.05;;;6.18;;
42030;SDS011;27709;52.036;5.906;2023-02-18T05:34:20;10.55;;;6.00;;
42030;SDS011;27709;52.036;5.906;2023-02-18T05:36:46;12.57;;;6.88;;
42030;SDS011;27709;52.036;5.906;2023-02-18T05:39:12;11.40;;;5.85;;
42030;SDS011;27709;52.036;5.906;2023-02-18T05:41:37;9.75;;;5.30;;
42030;SDS011;27709;52.036;5.906;2023-02-18T05:44:03;10.02;;;5.47;;
42030;SDS011;27709;52.036;5.906;2023-02-18T05:46:47;9.70;;;5.65;;
42030;SDS011;27709;52.036;5.906;2023-02-18T05:49:12;8.68;;;5.00;;
42030;SDS011;27709;52.036;5.906;2023-02-18T05:51:38;8.55;;;4.78;;
42030;SDS011;27709;52.036;5.906;2023-02-18T05:54:03;9.25;;;4.90;;
42030;SDS011;27709;52.036;5.906;2023-02-18T05:56:29;8.00;;;4.22;;
42030;SDS011;27709;52.036;5.906;2023-02-18T05:58:55;6.47;;;3.65;;
42030;SDS011;27709;52.036;5.906;2023-02-18T06:01:20;5.28;;;3.17;;
42030;SDS011;27709;52.036;5.906;2023-02-18T06:03:46;6.40;;;3.35;;
42030;SDS011;27709;52.036;5.906;2023-02-18T06:06:11;6.47;;;3.45;;
42030;SDS011;27709;52.036;5.906;2023-02-18T06:08:37;8.95;;;5.32;;
42030;SDS011;27709;52.036;5.906;2023-02-18T06:11:02;10.68;;;6.55;;
42030;SDS011;27709;52.036;5.906;2023-02-18T06:13:28;7.75;;;4.68;;
42030;SDS011;27709;52.036;5.906;2023-02-18T06:15:54;8.68;;;5.15;;
42030;SDS011;27709;52.036;5.906;2023-02-18T06:18:20;8.23;;;5.05;;
42030;SDS011;27709;52.036;5.906;2023-02-18T06:20:46;6.93;;;4.22;;
42030;SDS011;27709;52.036;5.906;2023-02-18T06:23:12;7.80;;;4.88;;
42030;SDS011;27709;52.036;5.906;2023-02-18T06:25:39;11.32;;;6.57;;
42030;SDS011;27709;52.036;5.906;2023-02-18T06:28:05;9.90;;;6.13;;
42030;SDS011;27709;52.036;5.906;2023-02-18T06:30:30;12.80;;;7.88;;
42030;SDS011;27709;52.036;5.906;2023-02-18T06:32:56;11.68;;;7.38;;
42030;SDS011;27709;52.036;5.906;2023-02-18T06:35:22;12.30;;;7.45;;
42030;SDS011;27709;52.036;5.906;2023-02-18T06:37:47;13.52;;;8.38;;
42030;SDS011;27709;52.036;5.906;2023-02-18T06:40:13;12.55;;;7.32;;
42030;SDS011;27709;52.036;5.906;2023-02-18T06:42:38;12.10;;;7.68;;
42030;SDS011;27709;52.036;5.906;2023-02-18T06:45:04;13.48;;;8.13;;
42030;SDS011;27709;52.036;5.906;2023-02-18T06:47:30;15.00;;;8.95;;
42030;SDS011;27709;52.036;5.906;2023-02-18T06:49:57;14.93;;;8.70;;
42030;SDS011;27709;52.036;5.906;2023-02-18T06:52:23;13.95;;;8.70;;
42030;SDS011;27709;52.036;5.906;2023-02-18T06:54:49;16.02;;;8.93;;
42030;SDS011;27709;52.036;5.906;2023-02-18T06:57:14;11.07;;;7.05;;
42030;SDS011;27709;52.036;5.906;2023-02-18T06:59:40;12.10;;;7.40;;
42030;SDS011;27709;52.036;5.906;2023-02-18T07:02:05;10.57;;;6.07;;
42030;SDS011;27709;52.036;5.906;2023-02-18T07:04:31;10.20;;;6.22;;
42030;SDS011;27709;52.036;5.906;2023-02-18T07:06:57;9.02;;;5.10;;
42030;SDS011;27709;52.036;5.906;2023-02-18T07:09:22;7.80;;;5.00;;
42030;SDS011;27709;52.036;5.906;2023-02-18T07:11:48;9.95;;;5.50;;
42030;SDS011;27709;52.036;5.906;2023-02-18T07:14:13;10.10;;;5.35;;
42030;SDS011;27709;52.036;5.906;2023-02-18T07:16:39;9.75;;;6.38;;
42030;SDS011;27709;52.036;5.906;2023-02-18T07:19:04;11.60;;;5.75;;
42030;SDS011;27709;52.036;5.906;2023-02-18T07:21:30;10.02;;;6.28;;
42030;SDS011;27709;52.036;5.906;2023-02-18T07:23:55;9.93;;;6.35;;
42030;SDS011;27709;52.036;5.906;2023-02-18T07:26:22;9.95;;;6.18;;
42030;SDS011;27709;52.036;5.906;2023-02-18T07:28:48;13.48;;;6.75;;
42030;SDS011;27709;52.036;5.906;2023-02-18T07:31:13;9.35;;;5.43;;
42030;SDS011;27709;52.036;5.906;2023-02-18T07:33:39;10.25;;;6.25;;
42030;SDS011;27709;52.036;5.906;2023-02-18T07:36:04;11.98;;;7.30;;
42030;SDS011;27709;52.036;5.906;2023-02-18T07:38:30;16.10;;;7.93;;
42030;SDS011;27709;52.036;5.906;2023-02-18T07:40:57;14.70;;;7.93;;
42030;SDS011;27709;52.036;5.906;2023-02-18T07:43:22;16.40;;;8.52;;
42030;SDS011;27709;52.036;5.906;2023-02-18T07:45:48;12.73;;;7.75;;
42030;SDS011;27709;52.036;5.906;2023-02-18T07:48:14;11.57;;;7.00;;
42030;SDS011;27709;52.036;5.906;2023-02-18T07:50:41;15.23;;;8.55;;
42030;SDS011;27709;52.036;5.906;2023-02-18T07:53:09;17.20;;;8.13;;
42030;SDS011;27709;52.036;5.906;2023-02-18T07:55:35;16.02;;;8.38;;
42030;SDS011;27709;52.036;5.906;2023-02-18T07:58:17;14.80;;;7.50;;
42030;SDS011;27709;52.036;5.906;2023-02-18T08:00:44;14.48;;;7.35;;
42030;SDS011;27709;52.036;5.906;2023-02-18T08:03:12;14.07;;;7.47;;
42030;SDS011;27709;52.036;5.906;2023-02-18T08:05:38;12.50;;;6.88;;
42030;SDS011;27709;52.036;5.906;2023-02-18T08:08:05;16.50;;;8.18;;
42030;SDS011;27709;52.036;5.906;2023-02-18T08:10:30;16.85;;;8.05;;
42030;SDS011;27709;52.036;5.906;2023-02-18T08:12:57;15.20;;;6.57;;
42030;SDS011;27709;52.036;5.906;2023-02-18T08:15:22;16.13;;;7.38;;
42030;SDS011;27709;52.036;5.906;2023-02-18T08:17:48;15.23;;;7.13;;
42030;SDS011;27709;52.036;5.906;2023-02-18T08:20:13;18.20;;;7.50;;
42030;SDS011;27709;52.036;5.906;2023-02-18T08:22:39;18.17;;;7.00;;
42030;SDS011;27709;52.036;5.906;2023-02-18T08:25:05;15.38;;;5.95;;
42030;SDS011;27709;52.036;5.906;2023-02-18T08:27:30;16.20;;;5.25;;
42030;SDS011;27709;52.036;5.906;2023-02-18T08:29:56;20.88;;;6.55;;
42030;SDS011;27709;52.036;5.906;2023-02-18T08:32:25;12.75;;;5.47;;
42030;SDS011;27709;52.036;5.906;2023-02-18T08:34:52;17.98;;;5.85;;
42030;SDS011;27709;52.036;5.906;2023-02-18T08:37:18;17.35;;;5.65;;
42030;SDS011;27709;52.036;5.906;2023-02-18T08:39:43;19.17;;;5.72;;
42030;SDS011;27709;52.036;5.906;2023-02-18T08:42:09;17.65;;;4.30;;
42030;SDS011;27709;52.036;5.906;2023-02-18T08:44:34;12.25;;;3.30;;
42030;SDS011;27709;52.036;5.906;2023-02-18T08:47:00;12.98;;;3.50;;
42030;SDS011;27709;52.036;5.906;2023-02-18T08:49:26;15.80;;;3.97;;
42030;SDS011;27709;52.036;5.906;2023-02-18T08:51:51;17.25;;;3.80;;
42030;SDS011;27709;52.036;5.906;2023-02-18T08:54:17;14.55;;;2.83;;
42030;SDS011;27709;52.036;5.906;2023-02-18T08:56:43;20.80;;;3.45;;
42030;SDS011;27709;52.036;5.906;2023-02-18T08:59:08;14.13;;;2.75;;
42030;SDS011;27709;52.036;5.906;2023-02-18T09:01:36;14.63;;;3.00;;
42030;SDS011;27709;52.036;5.906;2023-02-18T09:04:01;11.02;;;2.60;;
42030;SDS011;27709;52.036;5.906;2023-02-18T09:06:28;12.73;;;3.00;;
42030;SDS011;27709;52.036;5.906;2023-02-18T09:08:54;12.18;;;2.30;;
42030;SDS011;27709;52.036;5.906;2023-02-18T09:11:19;13.48;;;2.33;;
42030;SDS011;27709;52.036;5.906;2023-02-18T09:13:45;11.80;;;2.70;;
42030;SDS011;27709;52.036;5.906;2023-02-18T09:16:12;12.57;;;2.03;;
42030;SDS011;27709;52.036;5.906;2023-02-18T09:18:43;11.93;;;2.33;;
42030;SDS011;27709;52.036;5.906;2023-02-18T09:21:10;12.20;;;2.78;;
42030;SDS011;27709;52.036;5.906;2023-02-18T09:23:37;16.33;;;2.38;;
42030;SDS011;27709;52.036;5.906;2023-02-18T09:26:04;16.95;;;2.30;;
42030;SDS011;27709;52.036;5.906;2023-02-18T09:28:31;11.32;;;1.77;;
42030;SDS011;27709;52.036;5.906;2023-02-18T09:30:57;14.20;;;2.38;;
42030;SDS011;27709;52.036;5.906;2023-02-18T09:33:35;11.70;;;1.85;;
42030;SDS011;27709;52.036;5.906;2023-02-18T09:36:02;7.72;;;1.52;;
42030;SDS011;27709;52.036;5.906;2023-02-18T09:38:28;8.63;;;1.60;;
42030;SDS011;27709;52.036;5.906;2023-02-18T09:40:54;7.70;;;1.70;;
42030;SDS011;27709;52.036;5.906;2023-02-18T09:45:50;7.05;;;1.67;;
42030;SDS011;27709;52.036;5.906;2023-02-18T09:48:17;12.43;;;2.10;;
42030;SDS011;27709;52.036;5.906;2023-02-18T09:50:42;9.48;;;1.48;;
42030;SDS011;27709;52.036;5.906;2023-02-18T09:53:15;10.15;;;1.77;;
42030;SDS011;27709;52.036;5.906;2023-02-18T09:55:41;13.43;;;2.60;;
42030;SDS011;27709;52.036;5.906;2023-02-18T09:58:15;12.32;;;1.80;;
42030;SDS011;27709;52.036;5.906;2023-02-18T10:00:45;8.25;;;2.25;;
42030;SDS011;27709;52.036;5.906;2023-02-18T10:03:19;10.38;;;1.77;;
42030;SDS011;27709;52.036;5.906;2023-02-18T10:05:56;13.95;;;2.72;;
42030;SDS011;27709;52.036;5.906;2023-02-18T10:08:36;10.70;;;2.20;;
42030;SDS011;27709;52.036;5.906;2023-02-18T10:11:08;14.80;;;2.38;;
42030;SDS011;27709;52.036;5.906;2023-02-18T10:16:05;13.68;;;2.28;;
42030;SDS011;27709;52.036;5.906;2023-02-18T10:18:39;12.50;;;2.50;;
42030;SDS011;27709;52.036;5.906;2023-02-18T10:23:45;11.07;;;2.00;;
42030;SDS011;27709;52.036;5.906;2023-02-18T10:26:21;13.38;;;2.08;;
42030;SDS011;27709;52.036;5.906;2023-02-18T10:28:47;10.55;;;2.30;;
42030;SDS011;27709;52.036;5.906;2023-02-18T10:31:14;11.35;;;2.67;;
42030;SDS011;27709;52.036;5.906;2023-02-18T10:34:04;11.70;;;2.80;;
42030;SDS011;27709;52.036;5.906;2023-02-18T10:36:40;16.27;;;2.83;;
42030;SDS011;27709;52.036;5.906;2023-02-18T10:42:04;12.73;;;3.03;;
42030;SDS011;27709;52.036;5.906;2023-02-18T10:44:43;12.90;;;3.10;;
42030;SDS011;27709;52.036;5.906;2023-02-18T10:47:42;14.90;;;3.03;;
42030;SDS011;27709;52.036;5.906;2023-02-18T10:52:52;14.07;;;3.20;;
42030;SDS011;27709;52.036;5.906;2023-02-18T10:55:20;9.43;;;3.13;;
42030;SDS011;27709;52.036;5.906;2023-02-18T11:01:00;11.85;;;2.90;;
42030;SDS011;27709;52.036;5.906;2023-02-18T11:03:45;11.07;;;3.30;;
42030;SDS011;27709;52.036;5.906;2023-02-18T11:06:19;12.80;;;2.67;;
42030;SDS011;27709;52.036;5.906;2023-02-18T11:08:51;15.38;;;3.90;;
42030;SDS011;27709;52.036;5.906;2023-02-18T11:11:22;14.75;;;3.50;;
42030;SDS011;27709;52.036;5.906;2023-02-18T11:13:58;12.38;;;3.72;;
42030;SDS011;27709;52.036;5.906;2023-02-18T11:16:46;14.35;;;4.38;;
42030;SDS011;27709;52.036;5.906;2023-02-18T11:19:33;16.02;;;3.80;;
42030;SDS011;27709;52.036;5.906;2023-02-18T11:22:20;16.23;;;3.85;;
42030;SDS011;27709;52.036;5.906;2023-02-18T11:24:52;13.95;;;4.30;;
42030;SDS011;27709;52.036;5.906;2023-02-18T11:29:53;15.50;;;4.20;;
42030;SDS011;27709;52.036;5.906;2023-02-18T11:32:26;22.58;;;4.95;;
42030;SDS011;27709;52.036;5.906;2023-02-18T11:34:52;14.68;;;3.97;;
42030;SDS011;27709;52.036;5.906;2023-02-18T11:37:19;15.63;;;4.53;;
42030;SDS011;27709;52.036;5.906;2023-02-18T11:39:47;14.85;;;4.38;;
42030;SDS011;27709;52.036;5.906;2023-02-18T11:42:15;11.98;;;3.75;;
42030;SDS011;27709;52.036;5.906;2023-02-18T11:45:02;15.88;;;4.43;;
42030;SDS011;27709;52.036;5.906;2023-02-18T11:50:13;14.23;;;4.18;;
42030;SDS011;27709;52.036;5.906;2023-02-18T11:52:45;11.20;;;4.03;;
42030;SDS011;27709;52.036;5.906;2023-02-18T11:57:45;14.25;;;3.83;;
42030;SDS011;27709;52.036;5.906;2023-02-18T12:00:23;11.73;;;3.90;;
42030;SDS011;27709;52.036;5.906;2023-02-18T12:03:02;16.92;;;5.78;;
42030;SDS011;27709;52.036;5.906;2023-02-18T12:05:33;14.93;;;4.45;;
42030;SDS011;27709;52.036;5.906;2023-02-18T12:08:04;16.77;;;5.78;;
42030;SDS011;27709;52.036;5.906;2023-02-18T12:10:52;16.52;;;5.88;;
42030;SDS011;27709;52.036;5.906;2023-02-18T12:13:27;14.75;;;4.78;;
42030;SDS011;27709;52.036;5.906;2023-02-18T12:16:05;14.98;;;4.22;;
42030;SDS011;27709;52.036;5.906;2023-02-18T12:21:44;14.10;;;4.63;;
42030;SDS011;27709;52.036;5.906;2023-02-18T12:24:51;13.38;;;5.22;;
42030;SDS011;27709;52.036;5.906;2023-02-18T12:27:23;15.13;;;5.10;;
42030;SDS011;27709;52.036;5.906;2023-02-18T12:35:48;18.50;;;5.88;;
42030;SDS011;27709;52.036;5.906;2023-02-18T12:43:57;14.63;;;5.97;;
42030;SDS011;27709;52.036;5.906;2023-02-18T12:52:05;16.95;;;5.97;;
42030;SDS011;27709;52.036;5.906;2023-02-18T12:54:54;17.30;;;5.32;;
42030;SDS011;27709;52.036;5.906;2023-02-18T12:57:30;13.38;;;5.00;;
42030;SDS011;27709;52.036;5.906;2023-02-18T13:05:43;19.95;;;5.90;;
42030;SDS011;27709;52.036;5.906;2023-02-18T13:14:21;14.82;;;5.30;;
42030;SDS011;27709;52.036;5.906;2023-02-18T13:17:00;13.10;;;3.88;;
42030;SDS011;27709;52.036;5.906;2023-02-18T13:19:33;12.60;;;4.38;;
42030;SDS011;27709;52.036;5.906;2023-02-18T13:22:19;15.45;;;4.78;;
42030;SDS011;27709;52.036;5.906;2023-02-18T13:24:48;19.13;;;4.80;;
42030;SDS011;27709;52.036;5.906;2023-02-18T13:37:45;19.83;;;5.18;;
42030;SDS011;27709;52.036;5.906;2023-02-18T13:40:34;15.15;;;4.53;;
42030;SDS011;27709;52.036;5.906;2023-02-18T13:43:16;14.13;;;4.05;;
42030;SDS011;27709;52.036;5.906;2023-02-18T13:48:27;17.63;;;4.90;;
42030;SDS011;27709;52.036;5.906;2023-02-18T13:50:53;14.88;;;4.65;;
42030;SDS011;27709;52.036;5.906;2023-02-18T13:53:29;18.83;;;5.40;;
42030;SDS011;27709;52.036;5.906;2023-02-18T13:56:22;16.45;;;5.28;;
42030;SDS011;27709;52.036;5.906;2023-02-18T13:58:54;17.95;;;5.15;;
42030;SDS011;27709;52.036;5.906;2023-02-18T14:02:06;13.38;;;4.60;;
42030;SDS011;27709;52.036;5.906;2023-02-18T14:07:20;15.52;;;5.18;;
42030;SDS011;27709;52.036;5.906;2023-02-18T14:09:51;13.55;;;4.63;;
42030;SDS011;27709;52.036;5.906;2023-02-18T14:23:11;13.38;;;4.78;;
42030;SDS011;27709;52.036;5.906;2023-02-18T14:33:33;11.82;;;4.10;;
42030;SDS011;27709;52.036;5.906;2023-02-18T14:42:22;13.13;;;4.30;;
42030;SDS011;27709;52.036;5.906;2023-02-18T14:50:08;11.50;;;4.47;;
42030;SDS011;27709;52.036;5.906;2023-02-18T14:52:37;14.88;;;4.85;;
42030;SDS011;27709;52.036;5.906;2023-02-18T14:55:14;11.85;;;3.95;;
42030;SDS011;27709;52.036;5.906;2023-02-18T14:57:53;11.57;;;3.70;;
42030;SDS011;27709;52.036;5.906;2023-02-18T15:00:22;13.23;;;5.38;;
42030;SDS011;27709;52.036;5.906;2023-02-18T15:02:52;15.48;;;4.65;;
42030;SDS011;27709;52.036;5.906;2023-02-18T15:05:22;12.25;;;4.00;;
42030;SDS011;27709;52.036;5.906;2023-02-18T15:07:53;12.90;;;4.57;;
42030;SDS011;27709;52.036;5.906;2023-02-18T15:13:14;11.50;;;4.53;;
42030;SDS011;27709;52.036;5.906;2023-02-18T15:15:47;13.52;;;4.95;;
42030;SDS011;27709;52.036;5.906;2023-02-18T15:18:20;14.15;;;4.72;;
42030;SDS011;27709;52.036;5.906;2023-02-18T15:20:59;13.73;;;4.85;;
42030;SDS011;27709;52.036;5.906;2023-02-18T15:23:27;10.95;;;3.97;;
42030;SDS011;27709;52.036;5.906;2023-02-18T15:25:55;11.70;;;3.40;;
42030;SDS011;27709;52.036;5.906;2023-02-18T15:28:29;7.85;;;3.60;;
42030;SDS011;27709;52.036;5.906;2023-02-18T15:30:57;11.32;;;4.28;;
42030;SDS011;27709;52.036;5.906;2023-02-18T15:33:24;13.85;;;4.30;;
42030;SDS011;27709;52.036;5.906;2023-02-18T15:35:50;13.00;;;3.80;;
42030;SDS011;27709;52.036;5.906;2023-02-18T15:38:24;10.35;;;3.67;;
42030;SDS011;27709;52.036;5.906;2023-02-18T15:40:51;12.50;;;4.22;;
42030;SDS011;27709;52.036;5.906;2023-02-18T15:43:19;14.13;;;4.50;;
42030;SDS011;27709;52.036;5.906;2023-02-18T15:45:47;12.10;;;4.03;;
42030;SDS011;27709;52.036;5.906;2023-02-18T15:49:00;17.83;;;4.80;;
42030;SDS011;27709;52.036;5.906;2023-02-18T15:51:02;15.80;;;5.78;;
42030;SDS011;27709;52.036;5.906;2023-02-18T15:53:29;12.55;;;5.03;;
42030;SDS011;27709;52.036;5.906;2023-02-18T15:56:04;13.90;;;5.47;;
42030;SDS011;27709;52.036;5.906;2023-02-18T15:58:33;17.38;;;6.20;;
42030;SDS011;27709;52.036;5.906;2023-02-18T16:01:00;16.42;;;6.88;;
42030;SDS011;27709;52.036;5.906;2023-02-18T16:03:31;12.35;;;6.00;;
42030;SDS011;27709;52.036;5.906;2023-02-18T16:06:21;12.60;;;6.50;;
42030;SDS011;27709;52.036;5.906;2023-02-18T16:11:46;18.60;;;7.07;;
42030;SDS011;27709;52.036;5.906;2023-02-18T16:14:22;13.90;;;6.70;;
42030;SDS011;27709;52.036;5.906;2023-02-18T16:17:24;11.15;;;6.53;;
42030;SDS011;27709;52.036;5.906;2023-02-18T16:19:58;17.80;;;7.43;;
42030;SDS011;27709;52.036;5.906;2023-02-18T16:27:45;18.42;;;8.02;;
42030;SDS011;27709;52.036;5.906;2023-02-18T16:30:15;10.43;;;6.50;;
42030;SDS011;27709;52.036;5.906;2023-02-18T16:32:43;17.98;;;7.57;;
42030;SDS011;27709;52.036;5.906;2023-02-18T16:35:10;19.95;;;7.97;;
42030;SDS011;27709;52.036;5.906;2023-02-18T16:37:36;16.10;;;7.80;;
42030;SDS011;27709;52.036;5.906;2023-02-18T16:42:51;16.80;;;7.90;;
42030;SDS011;27709;52.036;5.906;2023-02-18T16:45:18;13.52;;;7.38;;
42030;SDS011;27709;52.036;5.906;2023-02-18T16:47:45;16.65;;;7.95;;
42030;SDS011;27709;52.036;5.906;2023-02-18T16:50:13;14.32;;;6.35;;
42030;SDS011;27709;52.036;5.906;2023-02-18T16:52:45;10.20;;;5.90;;
42030;SDS011;27709;52.036;5.906;2023-02-18T16:55:18;13.40;;;7.22;;
42030;SDS011;27709;52.036;5.906;2023-02-18T16:57:46;13.95;;;6.85;;
42030;SDS011;27709;52.036;5.906;2023-02-18T17:00:13;17.85;;;7.85;;
42030;SDS011;27709;52.036;5.906;2023-02-18T17:02:41;16.58;;;7.10;;
42030;SDS011;27709;52.036;5.906;2023-02-18T17:05:09;16.45;;;7.22;;
42030;SDS011;27709;52.036;5.906;2023-02-18T17:07:46;16.83;;;7.78;;
42030;SDS011;27709;52.036;5.906;2023-02-18T17:10:12;17.30;;;7.88;;
42030;SDS011;27709;52.036;5.906;2023-02-18T17:12:38;15.52;;;7.28;;